createdAt,value
2022-10-11T00:01:17.275Z,49.78
2022-10-11T00:03:45.584Z,49.30
2022-10-11T00:06:14.045Z,49.26
2022-10-11T00:08:42.675Z,49.04
2022-10-11T00:11:12.705Z,48.99
2022-10-11T00:13:41.210Z,48.33
2022-10-11T00:16:11.821Z,48.76
2022-10-11T00:18:40.787Z,48.66
2022-10-11T00:21:12.957Z,48.68
2022-10-11T00:23:42.567Z,48.66
2022-10-11T00:26:23.230Z,49.44
2022-10-11T00:29:01.615Z,49.20
2022-10-11T00:31:41.564Z,49.28
2022-10-11T00:34:22.569Z,48.44
2022-10-11T00:37:01.687Z,48.76
2022-10-11T00:39:42.192Z,48.76
2022-10-11T00:42:21.960Z,48.13
2022-10-11T00:45:33.822Z,48.33
2022-10-11T00:48:21.162Z,48.44
2022-10-11T00:51:04.176Z,48.31
2022-10-11T00:53:43.653Z,48.16
2022-10-11T00:56:27.882Z,48.33
2022-10-11T00:59:16.928Z,48.23
2022-10-11T01:01:57.643Z,48.17
2022-10-11T01:04:39.022Z,48.04
2022-10-11T01:07:21.255Z,47.86
2022-10-11T01:10:01.280Z,48.36
2022-10-11T01:12:49.534Z,48.23
2022-10-11T01:15:35.932Z,48.00
2022-10-11T01:18:25.732Z,47.97
2022-10-11T01:21:13.307Z,47.91
2022-10-11T01:24:29.686Z,47.59
2022-10-11T01:27:30.755Z,47.69
2022-10-11T01:30:26.866Z,47.74
2022-10-11T01:33:19.828Z,47.74
2022-10-11T01:36:12.329Z,47.81
2022-10-11T01:38:58.535Z,47.85
2022-10-11T01:41:47.172Z,47.79
2022-10-11T01:44:28.163Z,47.65
2022-10-11T01:47:08.608Z,47.49
2022-10-11T01:49:54.803Z,47.52
2022-10-11T01:52:40.911Z,47.65
2022-10-11T01:55:31.413Z,47.63
2022-10-11T01:58:21.046Z,47.63
2022-10-11T02:01:09.688Z,47.38
2022-10-11T02:04:00.895Z,47.36
2022-10-11T02:06:49.716Z,47.18
2022-10-11T02:09:37.057Z,47.32
2022-10-11T02:12:24.740Z,47.13
2022-10-11T02:15:10.133Z,47.33
2022-10-11T02:17:55.148Z,47.87
2022-10-11T02:20:40.906Z,47.38
2022-10-11T02:23:25.145Z,47.73
2022-10-11T02:26:09.914Z,47.91
2022-10-11T02:28:54.169Z,47.92
2022-10-11T02:31:35.840Z,47.94
2022-10-11T02:34:20.056Z,48.15
2022-10-11T02:37:05.506Z,47.83
2022-10-11T02:39:49.787Z,47.98
2022-10-11T02:42:36.533Z,47.80
2022-10-11T02:45:20.962Z,47.65
2022-10-11T02:48:01.547Z,47.65
2022-10-11T02:50:43.397Z,47.77
2022-10-11T02:53:23.862Z,47.41
2022-10-11T02:56:06.315Z,47.32
2022-10-11T02:58:47.208Z,47.24
2022-10-11T03:01:27.285Z,47.70
2022-10-11T03:04:07.325Z,47.74
2022-10-11T03:06:47.574Z,48.02
2022-10-11T03:09:28.494Z,47.51
2022-10-11T03:12:08.993Z,47.13
2022-10-11T03:14:49.813Z,47.29
2022-10-11T03:17:36.577Z,47.35
2022-10-11T03:20:18.433Z,47.36
2022-10-11T03:22:58.766Z,47.58
2022-10-11T03:25:38.625Z,46.96
2022-10-11T03:28:18.528Z,47.77
2022-10-11T03:30:58.613Z,47.63
2022-10-11T03:33:38.657Z,47.92
2022-10-11T03:36:18.964Z,48.06
2022-10-11T03:39:00.511Z,47.76
2022-10-11T03:41:39.337Z,47.88
2022-10-11T03:44:20.481Z,47.18
2022-10-11T03:46:58.928Z,46.75
2022-10-11T03:49:43.424Z,46.66
2022-10-11T03:52:24.789Z,46.55
2022-10-11T03:55:04.901Z,46.52
2022-10-11T03:57:44.334Z,46.40
2022-10-11T04:00:24.240Z,45.62
2022-10-11T04:03:04.368Z,46.25
2022-10-11T04:05:45.649Z,46.11
2022-10-11T04:08:43.711Z,46.13
2022-10-11T04:11:22.981Z,46.10
2022-10-11T04:14:02.623Z,45.89
2022-10-11T04:16:43.772Z,45.79
2022-10-11T04:19:23.546Z,46.03
2022-10-11T04:22:03.523Z,46.05
2022-10-11T04:24:43.244Z,45.84
2022-10-11T04:27:22.970Z,45.77
2022-10-11T04:30:02.834Z,45.57
2022-10-11T04:32:42.509Z,45.60
2022-10-11T04:35:22.334Z,45.61
2022-10-11T04:38:01.211Z,45.38
2022-10-11T04:40:41.993Z,45.62
2022-10-11T04:43:20.477Z,45.50
2022-10-11T04:45:58.681Z,45.52
2022-10-11T04:48:38.357Z,45.50
2022-10-11T04:51:18.146Z,45.38
2022-10-11T04:53:59.822Z,45.56
2022-10-11T04:56:39.188Z,45.52
2022-10-11T04:59:17.698Z,45.71
2022-10-11T05:01:57.525Z,45.65
2022-10-11T05:04:37.214Z,45.22
2022-10-11T05:07:16.871Z,45.20
2022-10-11T05:09:56.664Z,45.23
2022-10-11T05:12:36.411Z,45.15
2022-10-11T05:15:16.407Z,44.97
2022-10-11T05:17:56.060Z,44.71
2022-10-11T05:20:35.849Z,44.63
2022-10-11T05:23:17.038Z,44.29
2022-10-11T05:25:57.193Z,44.29
2022-10-11T05:28:35.923Z,44.37
2022-10-11T05:31:17.814Z,44.42
2022-10-11T05:33:58.080Z,44.48
2022-10-11T05:36:38.335Z,44.52
2022-10-11T05:39:18.948Z,44.61
2022-10-11T05:42:00.945Z,44.30
2022-10-11T05:44:42.211Z,44.29
2022-10-11T05:47:21.904Z,44.51
2022-10-11T05:50:01.638Z,44.48
2022-10-11T05:52:41.557Z,44.30
2022-10-11T05:55:22.257Z,44.34
2022-10-11T05:58:04.080Z,44.42
2022-10-11T06:00:44.123Z,44.56
2022-10-11T06:03:25.211Z,44.79
2022-10-11T06:06:06.151Z,44.57
2022-10-11T06:08:46.036Z,44.60
2022-10-11T06:11:28.594Z,44.21
2022-10-11T06:14:08.288Z,43.97
2022-10-11T06:17:16.565Z,43.45
2022-10-11T06:19:55.007Z,43.72
2022-10-11T06:22:49.059Z,43.54
2022-10-11T06:25:42.448Z,43.59
2022-10-11T06:28:37.683Z,43.88
2022-10-11T06:31:32.780Z,44.01
2022-10-11T06:34:26.981Z,44.43
2022-10-11T06:37:26.887Z,44.04
2022-10-11T06:40:26.015Z,44.03
2022-10-11T06:43:05.617Z,43.75
2022-10-11T06:45:44.104Z,43.05
2022-10-11T06:48:51.250Z,42.42
2022-10-11T06:51:48.466Z,43.36
2022-10-11T06:54:49.112Z,43.78
2022-10-11T06:57:29.032Z,44.43
2022-10-11T07:00:29.179Z,43.83
2022-10-11T07:03:22.322Z,44.10
2022-10-11T07:06:19.190Z,44.08
2022-10-11T07:09:24.393Z,43.89
2022-10-11T07:12:20.983Z,44.20
2022-10-11T07:15:18.877Z,44.35
2022-10-11T07:18:16.063Z,44.76
2022-10-11T07:20:54.976Z,44.91
2022-10-11T07:23:57.786Z,45.00
2022-10-11T07:26:38.195Z,44.75
2022-10-11T07:29:42.463Z,44.11
2022-10-11T07:32:39.401Z,44.46
2022-10-11T07:35:45.931Z,44.65
2022-10-11T07:38:47.558Z,44.90
2022-10-11T07:41:45.360Z,44.61
2022-10-11T07:44:54.769Z,44.12
2022-10-11T07:47:52.545Z,44.77
2022-10-11T07:50:51.413Z,44.49
2022-10-11T07:53:46.253Z,44.89
2022-10-11T07:56:41.108Z,44.76
2022-10-11T07:59:34.828Z,44.79
2022-10-11T08:02:29.025Z,44.46
2022-10-11T08:05:08.817Z,44.44
2022-10-11T08:08:06.786Z,44.33
2022-10-11T08:11:39.325Z,44.62
2022-10-11T08:14:36.691Z,44.20
2022-10-11T08:17:34.259Z,44.23
2022-10-11T08:20:33.190Z,44.45
2022-10-11T08:23:46.298Z,44.17
2022-10-11T08:26:41.719Z,43.24
2022-10-11T08:29:20.265Z,43.70
2022-10-11T08:32:14.715Z,43.81
2022-10-11T08:35:12.496Z,43.95
2022-10-11T08:38:09.592Z,43.51
2022-10-11T08:40:50.711Z,43.50
2022-10-11T08:43:52.903Z,43.38
2022-10-11T08:46:24.843Z,42.74
2022-10-11T08:48:53.953Z,42.67
2022-10-11T08:51:28.022Z,42.73
2022-10-11T08:54:07.363Z,42.52
2022-10-11T08:56:39.844Z,43.45
2022-10-11T08:59:32.354Z,43.21
2022-10-11T09:02:13.243Z,42.86
2022-10-11T09:04:41.731Z,42.61
2022-10-11T09:07:20.385Z,42.27
2022-10-11T09:10:02.255Z,42.34
2022-10-11T09:12:43.957Z,42.20
2022-10-11T09:15:31.105Z,42.24
2022-10-11T09:18:19.404Z,42.31
2022-10-11T09:20:57.387Z,42.20
2022-10-11T09:23:41.431Z,42.67
2022-10-11T09:26:16.083Z,43.02
2022-10-11T09:29:00.986Z,43.25
2022-10-11T09:31:32.593Z,43.52
2022-10-11T09:34:11.446Z,43.15
2022-10-11T09:36:45.985Z,43.82
2022-10-11T09:39:28.860Z,43.88
2022-10-11T09:42:02.283Z,43.67
2022-10-11T09:44:36.782Z,43.76
2022-10-11T09:47:07.338Z,43.26
2022-10-11T09:49:41.663Z,43.71
2022-10-11T09:52:17.649Z,44.63
2022-10-11T09:54:49.887Z,45.03
2022-10-11T09:57:23.283Z,45.68
2022-10-11T10:00:03.047Z,45.48
2022-10-11T10:02:43.979Z,45.22
2022-10-11T10:05:21.937Z,44.90
2022-10-11T10:08:05.096Z,44.29
2022-10-11T10:10:40.116Z,45.40
2022-10-11T10:13:21.859Z,44.68
2022-10-11T10:15:53.674Z,44.87
2022-10-11T10:18:27.233Z,45.51
2022-10-11T10:20:59.526Z,45.37
2022-10-11T10:23:30.812Z,46.38
2022-10-11T10:26:12.663Z,45.96
2022-10-11T10:28:56.881Z,46.24
2022-10-11T10:31:30.698Z,47.96
2022-10-11T10:34:01.002Z,49.86
2022-10-11T10:36:35.081Z,49.89
2022-10-11T10:39:11.278Z,48.81
2022-10-11T10:41:39.956Z,48.85
2022-10-11T10:44:11.644Z,48.17
2022-10-11T10:46:54.816Z,47.89
2022-10-11T10:52:42.934Z,47.97
2022-10-11T10:55:22.915Z,49.66
2022-10-11T10:58:06.209Z,49.44
2022-10-11T11:00:42.132Z,49.36
2022-10-11T11:03:21.946Z,49.33
2022-10-11T11:05:59.303Z,49.03
2022-10-11T11:08:46.633Z,48.57
2022-10-11T11:11:33.535Z,48.10
2022-10-11T11:14:11.081Z,48.15
2022-10-11T11:16:48.596Z,48.16
2022-10-11T11:19:33.657Z,49.65
2022-10-11T11:22:11.016Z,51.63
2022-10-11T11:24:53.799Z,52.54
2022-10-11T11:27:39.172Z,52.44
2022-10-11T11:30:13.241Z,52.96
2022-10-11T11:32:53.815Z,53.40
2022-10-11T11:35:28.942Z,52.20
2022-10-11T11:38:06.531Z,51.88
2022-10-11T11:40:40.722Z,52.47
2022-10-11T11:43:21.009Z,51.73
2022-10-11T11:45:53.784Z,51.84
2022-10-11T11:48:24.790Z,52.02
2022-10-11T11:51:02.368Z,51.58
2022-10-11T11:53:51.172Z,51.45
2022-10-11T11:56:28.768Z,51.61
2022-10-11T11:59:04.500Z,53.00
2022-10-11T12:01:41.730Z,51.51
2022-10-11T12:04:20.310Z,50.93
2022-10-11T12:07:15.422Z,50.43
2022-10-11T12:09:50.466Z,50.33
2022-10-11T12:12:30.739Z,50.26
2022-10-11T12:15:22.519Z,51.75
2022-10-11T12:18:07.247Z,50.99
2022-10-11T12:20:39.670Z,51.22
2022-10-11T12:23:43.462Z,52.91
2022-10-11T12:26:34.032Z,52.79
2022-10-11T12:29:06.399Z,52.18
2022-10-11T12:31:36.888Z,51.87
2022-10-11T12:34:21.013Z,51.14
2022-10-11T12:36:51.055Z,51.38
2022-10-11T12:39:46.648Z,51.37
2022-10-11T12:42:30.017Z,51.77
2022-10-11T12:45:32.378Z,51.79
2022-10-11T12:48:12.777Z,51.76
2022-10-11T12:50:51.385Z,51.39
2022-10-11T12:53:36.143Z,51.21
2022-10-11T12:56:10.636Z,51.14
2022-10-11T12:58:42.099Z,51.20
2022-10-11T13:01:20.681Z,51.31
2022-10-11T13:04:07.793Z,50.67
2022-10-11T13:06:45.342Z,50.89
2022-10-11T13:09:21.773Z,51.80
2022-10-11T13:11:53.797Z,51.41
2022-10-11T13:14:27.241Z,51.08
2022-10-11T13:17:00.510Z,50.79
2022-10-11T13:19:30.087Z,50.78
2022-10-11T13:22:01.415Z,50.93
2022-10-11T13:24:37.121Z,49.96
2022-10-11T13:27:07.561Z,49.63
2022-10-11T13:29:41.299Z,49.70
2022-10-11T13:32:16.410Z,50.15
2022-10-11T13:34:50.340Z,51.15
2022-10-11T13:37:21.716Z,51.10
2022-10-11T13:39:53.888Z,50.33
2022-10-11T13:42:28.355Z,50.57
2022-10-11T13:44:59.808Z,50.20
2022-10-11T13:47:31.753Z,49.75
2022-10-11T13:50:09.196Z,49.47
2022-10-11T13:52:51.206Z,49.56
2022-10-11T13:55:26.078Z,49.41
2022-10-11T13:57:55.984Z,49.70
2022-10-11T14:00:37.728Z,49.35
2022-10-11T14:03:17.114Z,49.76
2022-10-11T14:05:54.821Z,49.44
2022-10-11T14:08:31.965Z,50.20
2022-10-11T14:11:06.093Z,50.94
2022-10-11T14:13:37.783Z,50.99
2022-10-11T14:16:10.333Z,50.53
2022-10-11T14:18:46.025Z,50.36
2022-10-11T14:21:33.756Z,49.96
2022-10-11T14:24:05.141Z,50.15
2022-10-11T14:26:36.295Z,50.05
2022-10-11T14:29:09.603Z,50.03
2022-10-11T14:31:42.290Z,50.16
2022-10-11T14:34:19.161Z,50.19
2022-10-11T14:36:48.844Z,50.57
2022-10-11T14:39:21.040Z,50.59
2022-10-11T14:41:50.384Z,50.92
2022-10-11T14:44:20.351Z,50.99
2022-10-11T14:46:54.349Z,50.87
2022-10-11T14:49:26.104Z,51.17
2022-10-11T14:51:56.988Z,51.82
2022-10-11T14:54:29.226Z,52.46
2022-10-11T14:57:04.882Z,52.48
2022-10-11T14:59:37.133Z,52.59
2022-10-11T15:02:12.255Z,52.81
2022-10-11T15:04:40.991Z,52.45
2022-10-11T15:07:09.449Z,52.73
2022-10-11T15:09:38.532Z,53.03
2022-10-11T15:12:07.065Z,54.49
2022-10-11T15:14:35.510Z,55.57
2022-10-11T15:17:04.529Z,55.01
2022-10-11T15:19:34.362Z,54.88
2022-10-11T15:22:05.998Z,54.78
2022-10-11T15:24:34.748Z,54.58
2022-10-11T15:27:03.211Z,54.30
2022-10-11T15:29:31.879Z,54.97
2022-10-11T15:32:00.662Z,55.88
2022-10-11T15:34:29.296Z,56.09
2022-10-11T15:36:59.007Z,55.70
2022-10-11T15:39:31.532Z,55.38
2022-10-11T15:42:00.664Z,54.89
2022-10-11T15:44:29.455Z,54.99
2022-10-11T15:46:58.672Z,54.88
2022-10-11T15:49:27.428Z,54.88
2022-10-11T15:51:55.923Z,54.67
2022-10-11T15:54:25.893Z,54.75
2022-10-11T15:56:54.849Z,54.67
2022-10-11T15:59:23.384Z,54.67
2022-10-11T16:01:52.223Z,55.40
2022-10-11T16:04:20.830Z,55.99
2022-10-11T16:06:49.404Z,55.94
2022-10-11T16:09:20.278Z,56.29
2022-10-11T16:11:50.354Z,56.35
2022-10-11T16:14:19.283Z,56.25
2022-10-11T16:16:47.782Z,56.32
2022-10-11T16:19:16.669Z,56.18
2022-10-11T16:21:45.475Z,55.99
2022-10-11T16:24:14.372Z,55.81
2022-10-11T16:26:43.343Z,56.05
2022-10-11T16:29:13.715Z,56.28
2022-10-11T16:31:42.157Z,56.20
2022-10-11T16:34:10.969Z,56.92
2022-10-11T16:36:42.528Z,56.92
2022-10-11T16:39:14.197Z,57.11
2022-10-11T16:41:43.153Z,57.22
2022-10-11T16:44:16.896Z,56.97
2022-10-11T16:46:48.249Z,57.15
2022-10-11T16:49:18.509Z,57.03
2022-10-11T16:51:47.250Z,57.42
2022-10-11T16:54:20.388Z,59.26
2022-10-11T16:56:49.632Z,58.58
2022-10-11T16:59:20.689Z,58.62
2022-10-11T17:01:49.249Z,58.40
2022-10-11T17:04:18.118Z,58.53
2022-10-11T17:06:46.693Z,58.20
2022-10-11T17:09:16.206Z,58.04
2022-10-11T17:11:45.077Z,59.00
2022-10-11T17:14:14.074Z,58.67
2022-10-11T17:16:44.386Z,58.54
2022-10-11T17:19:15.609Z,58.74
2022-10-11T17:21:44.201Z,58.56
2022-10-11T17:24:13.107Z,58.41
2022-10-11T17:26:41.717Z,58.51
2022-10-11T17:29:15.777Z,58.41
2022-10-11T17:31:49.257Z,58.31
2022-10-11T17:34:20.456Z,60.10
2022-10-11T17:36:49.824Z,60.41
2022-10-11T17:39:20.860Z,60.38
2022-10-11T17:41:49.998Z,60.28
2022-10-11T17:44:19.348Z,60.00
2022-10-11T17:46:50.680Z,60.04
2022-10-11T17:49:20.063Z,60.77
2022-10-11T17:51:48.743Z,60.22
2022-10-11T17:54:17.824Z,60.31
2022-10-11T17:56:46.598Z,59.92
2022-10-11T17:59:22.187Z,59.31
2022-10-11T18:01:51.995Z,59.39
2022-10-11T18:04:21.932Z,59.52
2022-10-11T18:06:50.509Z,59.28
2022-10-11T18:09:19.717Z,59.19
2022-10-11T18:11:49.093Z,58.95
2022-10-11T18:14:18.468Z,58.80
2022-10-11T18:16:47.768Z,58.49
2022-10-11T18:19:17.869Z,58.43
2022-10-11T18:21:46.440Z,58.25
2022-10-11T18:24:16.523Z,58.29
2022-10-11T18:26:46.652Z,58.11
2022-10-11T18:29:15.874Z,58.17
2022-10-11T18:31:45.298Z,58.40
2022-10-11T18:34:15.899Z,58.41
2022-10-11T18:36:46.243Z,58.46
2022-10-11T18:39:16.188Z,58.20
2022-10-11T18:41:45.341Z,58.24
2022-10-11T18:44:16.716Z,58.31
2022-10-11T18:47:10.961Z,58.32
2022-10-11T18:50:00.793Z,58.31
2022-10-11T18:52:31.072Z,58.19
2022-10-11T18:55:02.793Z,58.26
2022-10-11T18:57:32.676Z,58.75
2022-10-11T19:00:07.383Z,58.74
2022-10-11T19:02:41.094Z,58.79
2022-10-11T19:05:12.334Z,58.87
2022-10-11T19:07:43.751Z,58.59
2022-10-11T19:10:12.310Z,58.28
2022-10-11T19:12:41.732Z,58.40
2022-10-11T19:15:12.595Z,58.11
2022-10-11T19:17:41.410Z,58.06
2022-10-11T19:20:13.285Z,58.08
2022-10-11T19:22:43.565Z,57.96
2022-10-11T19:25:12.102Z,57.81
2022-10-11T19:27:40.698Z,57.86
2022-10-11T19:30:10.256Z,57.80
2022-10-11T19:32:38.732Z,57.77
2022-10-11T19:35:08.964Z,57.86
2022-10-11T19:37:37.415Z,58.46
2022-10-11T19:40:09.188Z,58.43
2022-10-11T19:42:37.599Z,58.64
2022-10-11T19:45:07.767Z,58.58
2022-10-11T19:47:36.400Z,58.78
2022-10-11T19:50:05.344Z,58.85
2022-10-11T19:52:34.707Z,58.85
2022-10-11T19:55:03.283Z,58.61
2022-10-11T19:57:34.527Z,58.27
2022-10-11T20:00:03.090Z,58.16
2022-10-11T20:02:34.626Z,58.06
2022-10-11T20:05:03.718Z,58.10
2022-10-11T20:07:32.708Z,57.85
2022-10-11T20:10:01.441Z,57.71
2022-10-11T20:12:30.365Z,57.74
2022-10-11T20:15:00.979Z,57.76
2022-10-11T20:17:43.744Z,57.74
2022-10-11T20:20:12.343Z,57.56
2022-10-11T20:22:41.208Z,57.88
2022-10-11T20:25:10.641Z,57.79
2022-10-11T20:27:42.636Z,57.82
2022-10-11T20:30:14.819Z,58.40
2022-10-11T20:32:43.523Z,58.47
2022-10-11T20:35:12.098Z,58.39
2022-10-11T20:37:40.779Z,58.31
2022-10-11T20:40:12.273Z,58.47
2022-10-11T20:42:40.956Z,58.06
2022-10-11T20:45:12.692Z,58.35
2022-10-11T20:47:41.687Z,58.44
2022-10-11T20:50:12.476Z,58.47
2022-10-11T20:52:41.387Z,58.48
2022-10-11T20:55:10.379Z,58.36
2022-10-11T20:57:39.003Z,58.15
2022-10-11T21:00:09.314Z,58.42
2022-10-11T21:02:39.047Z,58.41
2022-10-11T21:05:08.605Z,58.47
2022-10-11T21:07:37.235Z,58.53
2022-10-11T21:10:06.160Z,58.61
2022-10-11T21:12:35.499Z,58.62
2022-10-11T21:15:04.248Z,58.63
2022-10-11T21:17:32.901Z,58.74
2022-10-11T21:20:05.985Z,58.80
2022-10-11T21:22:35.629Z,58.75
2022-10-11T21:25:05.080Z,59.04
2022-10-11T21:27:34.275Z,58.94
2022-10-11T21:30:03.343Z,58.99
2022-10-11T21:32:32.148Z,59.00
2022-10-11T21:35:03.441Z,59.09
2022-10-11T21:37:32.522Z,59.20
2022-10-11T21:40:01.336Z,59.20
2022-10-11T21:42:30.070Z,59.38
2022-10-11T21:44:59.334Z,59.33
2022-10-11T21:47:27.719Z,59.39
2022-10-11T21:49:56.345Z,59.42
2022-10-11T21:52:26.184Z,59.72
2022-10-11T21:54:57.441Z,59.57
2022-10-11T21:57:25.795Z,59.43
2022-10-11T21:59:54.645Z,59.39
2022-10-11T22:02:23.388Z,59.57
2022-10-11T22:04:53.409Z,59.77
2022-10-11T22:07:21.883Z,60.21
2022-10-11T22:09:52.466Z,60.12
2022-10-11T22:12:20.926Z,60.13
2022-10-11T22:14:49.538Z,60.92
2022-10-11T22:17:18.060Z,60.60
2022-10-11T22:19:46.874Z,60.40
2022-10-11T22:22:15.880Z,60.53
2022-10-11T22:24:45.004Z,60.40
2022-10-11T22:27:14.931Z,60.81
2022-10-11T22:29:43.673Z,60.46
2022-10-11T22:32:12.123Z,60.95
2022-10-11T22:34:42.462Z,60.96
2022-10-11T22:37:11.233Z,61.17
2022-10-11T22:39:39.675Z,61.08
2022-10-11T22:42:08.058Z,61.25
